createdAt,value
2018-09-03T00:02:09.152Z,3.50
2018-09-03T00:04:37.045Z,3.40
2018-09-03T00:07:05.421Z,3.23
2018-09-03T00:09:39.091Z,3.80
2018-09-03T00:12:07.084Z,3.53
2018-09-03T00:14:35.201Z,3.20
2018-09-03T00:17:03.405Z,3.30
2018-09-03T00:19:31.618Z,3.80
2018-09-03T00:21:59.596Z,3.33
2018-09-03T00:24:27.575Z,3.53
2018-09-03T00:26:55.767Z,4.27
2018-09-03T00:29:23.841Z,3.93
2018-09-03T00:31:57.478Z,3.00
2018-09-03T00:34:31.301Z,3.43
2018-09-03T00:37:04.821Z,3.67
2018-09-03T00:39:38.357Z,3.57
2018-09-03T00:42:11.918Z,3.70
2018-09-03T00:46:53.985Z,3.40
2018-09-03T00:49:21.985Z,4.17
2018-09-03T00:51:50.029Z,3.70
2018-09-03T00:54:19.261Z,3.70
2018-09-03T00:56:47.247Z,3.77
2018-09-03T00:59:15.360Z,3.90
2018-09-03T01:01:43.492Z,4.33
2018-09-03T01:04:11.545Z,4.07
2018-09-03T01:06:39.453Z,3.80
2018-09-03T01:09:08.077Z,3.70
2018-09-03T01:11:36.055Z,4.50
2018-09-03T01:14:04.060Z,3.63
2018-09-03T01:16:32.302Z,3.90
2018-09-03T01:19:00.308Z,3.77
2018-09-03T01:21:28.451Z,4.70
2018-09-03T01:23:57.580Z,4.33
2018-09-03T01:26:26.435Z,4.07
2018-09-03T01:28:54.486Z,3.97
2018-09-03T01:31:22.512Z,4.07
2018-09-03T01:33:52.678Z,4.57
2018-09-03T01:36:21.133Z,4.30
2018-09-03T01:38:49.274Z,4.37
2018-09-03T01:41:18.148Z,4.13
2018-09-03T01:43:46.562Z,4.60
2018-09-03T01:46:14.543Z,3.87
2018-09-03T01:48:42.659Z,4.23
2018-09-03T01:51:10.972Z,4.17
2018-09-03T01:53:39.108Z,4.10
2018-09-03T01:56:07.777Z,4.20
2018-09-03T01:58:36.086Z,3.70
2018-09-03T02:01:04.378Z,4.27
2018-09-03T02:03:32.546Z,4.03
2018-09-03T02:06:00.523Z,3.60
2018-09-03T02:08:28.985Z,3.63
2018-09-03T02:10:57.092Z,3.80
2018-09-03T02:13:25.362Z,3.70
2018-09-03T02:15:53.441Z,3.60
2018-09-03T02:18:22.148Z,4.53
2018-09-03T02:20:50.058Z,3.63
2018-09-03T02:23:18.146Z,3.70
2018-09-03T02:25:46.213Z,3.13
2018-09-03T02:28:14.566Z,3.47
2018-09-03T02:30:42.714Z,3.47
2018-09-03T02:33:10.738Z,3.87
2018-09-03T02:35:38.836Z,4.83
2018-09-03T02:38:10.257Z,4.13
2018-09-03T02:40:38.458Z,5.10
2018-09-03T02:43:06.488Z,4.10
2018-09-03T02:45:34.571Z,3.60
2018-09-03T02:48:03.239Z,3.90
2018-09-03T02:50:35.029Z,4.23
2018-09-03T02:53:03.137Z,4.03
2018-09-03T02:55:31.159Z,4.10
2018-09-03T02:57:59.162Z,3.80
2018-09-03T03:00:28.087Z,4.47
2018-09-03T03:02:57.469Z,4.07
2018-09-03T03:05:26.161Z,3.80
2018-09-03T03:07:54.351Z,4.33
2018-09-03T03:10:22.608Z,3.73
2018-09-03T03:12:50.725Z,4.00
2018-09-03T03:15:18.950Z,4.20
2018-09-03T03:17:47.005Z,4.33
2018-09-03T03:20:15.071Z,4.40
2018-09-03T03:22:43.184Z,4.73
2018-09-03T03:25:11.179Z,4.50
2018-09-03T03:27:40.230Z,4.60
2018-09-03T03:30:09.395Z,4.23
2018-09-03T03:32:37.622Z,5.37
2018-09-03T03:35:07.299Z,5.10
2018-09-03T03:37:35.655Z,4.20
2018-09-03T03:40:04.234Z,4.43
2018-09-03T03:42:32.225Z,5.60
2018-09-03T03:45:00.437Z,4.80
2018-09-03T03:47:28.624Z,4.30
2018-09-03T03:49:56.707Z,4.00
2018-09-03T03:52:25.676Z,4.20
2018-09-03T03:54:53.720Z,4.43
2018-09-03T03:57:21.818Z,5.00
2018-09-03T03:59:50.431Z,4.70
2018-09-03T04:02:19.139Z,5.27
2018-09-03T04:04:47.132Z,5.47
2018-09-03T04:07:16.850Z,4.53
2018-09-03T04:09:44.774Z,4.70
2018-09-03T04:12:12.916Z,5.23
2018-09-03T04:14:41.774Z,4.73
2018-09-03T04:17:09.841Z,4.43
2018-09-03T04:19:37.806Z,5.20
2018-09-03T04:22:05.950Z,5.40
2018-09-03T04:24:33.988Z,5.43
2018-09-03T04:27:02.075Z,5.20
2018-09-03T04:29:30.095Z,5.57
2018-09-03T04:31:58.308Z,5.43
2018-09-03T04:34:27.438Z,6.40
2018-09-03T04:36:55.493Z,5.33
2018-09-03T04:39:23.719Z,5.70
2018-09-03T04:41:51.715Z,5.33
2018-09-03T04:44:19.670Z,5.20
2018-09-03T04:46:47.628Z,5.53
2018-09-03T04:49:16.444Z,5.90
2018-09-03T04:51:45.488Z,5.57
2018-09-03T04:54:16.428Z,5.63
2018-09-03T04:56:44.446Z,5.43
2018-09-03T04:59:12.927Z,4.70
2018-09-03T05:01:40.947Z,5.23
2018-09-03T05:04:08.965Z,5.50
2018-09-03T05:06:37.023Z,5.17
2018-09-03T05:09:05.730Z,5.63
2018-09-03T05:11:33.693Z,6.47
2018-09-03T05:14:01.794Z,5.83
2018-09-03T05:16:30.181Z,6.30
2018-09-03T05:18:58.098Z,5.90
2018-09-03T05:21:27.024Z,6.20
2018-09-03T05:23:55.165Z,6.73
2018-09-03T05:26:23.201Z,6.00
2018-09-03T05:28:51.346Z,6.07
2018-09-03T05:31:24.628Z,5.67
2018-09-03T05:33:52.548Z,6.23
2018-09-03T05:36:21.257Z,6.27
2018-09-03T05:38:49.294Z,6.57
2018-09-03T05:41:17.133Z,5.70
2018-09-03T05:43:45.082Z,6.23
2018-09-03T05:46:12.975Z,6.23
2018-09-03T05:48:41.108Z,6.40
2018-09-03T05:51:09.120Z,6.47
2018-09-03T05:53:37.361Z,6.50
2018-09-03T05:56:05.609Z,7.23
2018-09-03T05:58:33.901Z,7.33
2018-09-03T06:01:03.309Z,7.57
2018-09-03T06:03:31.228Z,7.67
2018-09-03T06:05:59.298Z,6.93
2018-09-03T06:08:27.404Z,7.50
2018-09-03T06:10:55.767Z,7.57
2018-09-03T06:13:23.826Z,6.93
2018-09-03T06:15:51.947Z,7.77
2018-09-03T06:18:20.006Z,7.77
2018-09-03T06:20:48.114Z,6.63
2018-09-03T06:23:16.130Z,7.53
2018-09-03T06:25:44.302Z,6.97
2018-09-03T06:28:12.369Z,7.30
2018-09-03T06:30:40.594Z,7.80
2018-09-03T06:33:08.587Z,7.60
2018-09-03T06:35:36.810Z,8.03
2018-09-03T06:38:04.903Z,7.20
2018-09-03T06:40:35.224Z,7.33
2018-09-03T06:43:03.292Z,7.70
2018-09-03T06:45:31.191Z,8.73
2018-09-03T06:47:59.305Z,7.73
2018-09-03T06:50:27.255Z,8.63
2018-09-03T06:52:55.452Z,7.50
2018-09-03T06:55:23.536Z,8.33
2018-09-03T06:57:51.553Z,7.90
2018-09-03T07:00:19.566Z,8.50
2018-09-03T07:02:47.977Z,8.17
2018-09-03T07:05:17.191Z,9.17
2018-09-03T07:07:45.220Z,8.43
2018-09-03T07:10:13.078Z,8.87
2018-09-03T07:12:41.651Z,8.37
2018-09-03T07:15:09.765Z,9.40
2018-09-03T07:17:37.958Z,8.90
2018-09-03T07:20:05.961Z,8.33
2018-09-03T07:22:33.994Z,8.57
2018-09-03T07:25:02.072Z,8.60
2018-09-03T07:27:30.183Z,8.47
2018-09-03T07:29:58.310Z,9.00
2018-09-03T07:32:26.354Z,8.97
2018-09-03T07:34:54.357Z,8.83
2018-09-03T07:37:22.282Z,8.40
2018-09-03T07:39:50.432Z,8.77
2018-09-03T07:42:18.456Z,8.93
2018-09-03T07:44:46.615Z,8.83
2018-09-03T07:47:14.556Z,8.73
2018-09-03T07:49:42.637Z,8.57
2018-09-03T07:52:10.712Z,9.17
2018-09-03T07:54:39.089Z,9.27
2018-09-03T07:57:06.641Z,8.50
2018-09-03T07:59:34.652Z,8.87
2018-09-03T08:02:02.817Z,8.90
2018-09-03T08:04:30.772Z,9.97
2018-09-03T08:06:58.897Z,9.40
2018-09-03T08:09:26.894Z,9.03
2018-09-03T08:11:55.043Z,9.43
2018-09-03T08:14:23.106Z,9.90
2018-09-03T08:16:51.268Z,11.47
2018-09-03T08:19:19.239Z,10.10
2018-09-03T08:21:47.364Z,10.30
2018-09-03T08:24:15.586Z,12.20
2018-09-03T08:26:43.723Z,11.37
2018-09-03T08:29:11.846Z,11.13
2018-09-03T08:31:40.279Z,12.20
2018-09-03T08:34:08.508Z,11.70
2018-09-03T08:36:36.474Z,11.40
2018-09-03T08:39:05.621Z,11.27
2018-09-03T08:41:33.715Z,11.43
2018-09-03T08:44:02.197Z,12.20
2018-09-03T08:46:30.362Z,12.43
2018-09-03T08:49:00.107Z,12.47
2018-09-03T08:51:28.306Z,12.70
2018-09-03T08:53:56.431Z,13.00
2018-09-03T08:56:24.495Z,12.47
2018-09-03T08:58:52.650Z,13.10
2018-09-03T09:01:20.708Z,12.00
2018-09-03T09:03:52.094Z,12.47
2018-09-03T09:06:20.142Z,12.10
2018-09-03T09:08:48.658Z,12.33
2018-09-03T09:11:17.330Z,12.50
2018-09-03T09:13:45.352Z,11.57
2018-09-03T09:16:13.378Z,12.30
2018-09-03T09:18:41.380Z,12.73
2018-09-03T09:21:09.339Z,11.73
2018-09-03T09:23:37.562Z,13.50
2018-09-03T09:26:06.555Z,12.67
2018-09-03T09:28:34.570Z,13.13
2018-09-03T09:31:02.777Z,13.23
2018-09-03T09:33:31.619Z,12.37
2018-09-03T09:35:59.670Z,11.70
2018-09-03T09:38:29.374Z,11.80
2018-09-03T09:40:57.338Z,13.60
2018-09-03T09:43:25.309Z,11.83
2018-09-03T09:45:53.468Z,11.40
2018-09-03T09:48:21.471Z,12.20
2018-09-03T09:50:49.456Z,12.13
2018-09-03T09:53:17.574Z,12.23
2018-09-03T09:55:45.595Z,10.27
2018-09-03T09:58:13.578Z,11.50
2018-09-03T10:00:47.503Z,10.83
2018-09-03T10:03:15.552Z,10.67
2018-09-03T10:05:43.727Z,10.70
2018-09-03T10:08:11.735Z,10.87
2018-09-03T10:10:39.887Z,10.17
2018-09-03T10:13:08.592Z,9.57
2018-09-03T10:15:36.566Z,10.33
2018-09-03T10:18:04.650Z,10.67
2018-09-03T10:20:32.791Z,9.83
2018-09-03T10:23:01.248Z,10.57
2018-09-03T10:25:30.571Z,9.67
2018-09-03T10:27:58.742Z,10.23
2018-09-03T10:30:26.609Z,10.10
2018-09-03T10:32:55.731Z,10.60
2018-09-03T10:35:23.780Z,10.90
2018-09-03T10:37:51.988Z,9.60
2018-09-03T10:40:20.115Z,10.57
2018-09-03T10:42:48.291Z,9.87
2018-09-03T10:45:16.262Z,10.27
2018-09-03T10:47:44.617Z,10.27
2018-09-03T10:50:12.838Z,9.47
2018-09-03T10:52:40.809Z,10.57
2018-09-03T10:55:12.935Z,10.70
2018-09-03T10:57:40.904Z,9.50
2018-09-03T11:00:09.191Z,9.33
2018-09-03T11:02:37.271Z,8.98
2018-09-03T11:05:05.538Z,9.80
2018-09-03T11:07:33.590Z,9.10
2018-09-03T11:10:01.636Z,9.60
2018-09-03T11:12:30.090Z,10.18
2018-09-03T11:14:58.412Z,10.50
2018-09-03T11:17:26.416Z,11.08
2018-09-03T11:19:58.879Z,10.15
2018-09-03T11:22:26.968Z,10.38
2018-09-03T11:24:55.241Z,11.25
2018-09-03T11:27:23.367Z,11.90
2018-09-03T11:29:51.604Z,11.15
2018-09-03T11:32:19.738Z,12.65
2018-09-03T11:34:48.073Z,11.80
2018-09-03T11:37:16.031Z,13.27
2018-09-03T11:39:44.077Z,12.10
2018-09-03T11:42:12.370Z,13.65
2018-09-03T11:44:40.391Z,12.67
2018-09-03T11:47:08.511Z,12.90
2018-09-03T11:49:36.436Z,13.80
2018-09-03T11:52:04.643Z,14.90
2018-09-03T11:54:32.688Z,15.63
2018-09-03T11:57:01.928Z,15.40
2018-09-03T11:59:29.998Z,15.30
2018-09-03T12:01:58.127Z,16.20
2018-09-03T12:04:26.061Z,15.07
2018-09-03T12:06:54.053Z,15.90
2018-09-03T12:09:22.171Z,17.32
2018-09-03T12:11:50.307Z,15.63
2018-09-03T12:14:22.949Z,16.93
2018-09-03T12:16:51.067Z,17.83
2018-09-03T12:19:19.085Z,17.67
2018-09-03T12:21:47.632Z,17.57
2018-09-03T12:24:15.608Z,18.83
2018-09-03T12:26:43.592Z,20.30
2018-09-03T12:29:11.747Z,19.85
2018-09-03T12:31:39.791Z,19.05
2018-09-03T12:34:08.094Z,20.02
2018-09-03T12:36:36.075Z,19.60
2018-09-03T12:39:06.702Z,20.00
2018-09-03T12:41:34.719Z,17.57
2018-09-03T12:44:02.773Z,18.45
2018-09-03T12:46:30.798Z,18.70
2018-09-03T12:48:58.788Z,18.55
2018-09-03T12:51:27.019Z,18.17
2018-09-03T12:53:54.956Z,19.10
2018-09-03T12:56:23.055Z,19.03
2018-09-03T12:58:51.233Z,17.97
2018-09-03T13:01:19.273Z,18.50
2018-09-03T13:03:47.489Z,18.30
2018-09-03T13:06:16.550Z,18.80
2018-09-03T13:08:44.811Z,21.00
2018-09-03T13:11:12.813Z,18.87
2018-09-03T13:13:40.781Z,20.80
2018-09-03T13:16:08.770Z,19.97
2018-09-03T13:18:36.820Z,17.73
2018-09-03T13:21:05.183Z,19.27
2018-09-03T13:23:33.149Z,19.47
2018-09-03T13:26:01.157Z,18.90
2018-09-03T13:28:29.285Z,18.87
2018-09-03T13:30:57.388Z,21.17
2018-09-03T13:33:25.385Z,22.10
2018-09-03T13:35:53.486Z,19.13
2018-09-03T13:38:21.584Z,21.27
2018-09-03T13:40:49.805Z,29.63
2018-09-03T13:43:17.863Z,27.93
2018-09-03T13:45:45.866Z,26.43
2018-09-03T13:48:13.953Z,27.67
2018-09-03T13:50:41.992Z,26.00
2018-09-03T13:53:10.043Z,26.37
2018-09-03T13:55:38.188Z,26.30
2018-09-03T13:58:06.277Z,27.30
2018-09-03T14:00:34.536Z,28.27
2018-09-03T14:03:02.586Z,24.73
2018-09-03T14:05:31.534Z,26.23
2018-09-03T14:07:59.656Z,25.23
2018-09-03T14:10:27.932Z,25.50
2018-09-03T14:12:55.975Z,24.63
2018-09-03T14:15:24.154Z,25.17
2018-09-03T14:17:52.167Z,23.40
2018-09-03T14:20:20.163Z,27.10
2018-09-03T14:22:48.141Z,24.60
2018-09-03T14:25:16.077Z,29.97
2018-09-03T14:27:44.406Z,28.60
2018-09-03T14:30:12.677Z,27.97
2018-09-03T14:32:40.820Z,28.33
2018-09-03T14:35:09.576Z,28.50
2018-09-03T14:37:37.631Z,27.60
2018-09-03T14:40:05.804Z,28.53
2018-09-03T14:42:33.844Z,26.93
2018-09-03T14:45:01.829Z,26.33
2018-09-03T14:47:30.054Z,25.47
2018-09-03T14:50:02.237Z,26.00
2018-09-03T14:52:30.593Z,28.57
2018-09-03T14:54:58.568Z,29.00
2018-09-03T14:57:27.131Z,28.23
2018-09-03T14:59:55.597Z,29.57
2018-09-03T15:02:23.903Z,29.30
2018-09-03T15:04:52.187Z,29.73
2018-09-03T15:07:20.528Z,30.63
2018-09-03T15:09:48.697Z,29.50
2018-09-03T15:12:17.137Z,31.03
2018-09-03T15:14:45.110Z,31.83
2018-09-03T15:17:13.051Z,31.53
2018-09-03T15:19:40.932Z,35.33
2018-09-03T15:22:10.151Z,35.50
2018-09-03T15:24:38.443Z,34.00
2018-09-03T15:27:06.407Z,35.57
2018-09-03T15:29:50.222Z,31.17
2018-09-03T15:32:18.202Z,30.87
2018-09-03T15:34:46.278Z,30.73
2018-09-03T15:37:14.712Z,29.03
2018-09-03T15:39:42.927Z,29.33
2018-09-03T15:42:11.115Z,27.77
2018-09-03T15:44:40.204Z,28.60
2018-09-03T15:47:09.984Z,28.90
2018-09-03T15:49:38.357Z,26.93
2018-09-03T15:52:06.465Z,30.40
2018-09-03T15:54:34.527Z,27.53
2018-09-03T15:57:03.425Z,28.67
2018-09-03T15:59:31.613Z,31.57
2018-09-03T16:01:59.623Z,32.73
2018-09-03T16:04:27.848Z,32.60
2018-09-03T16:06:56.195Z,33.57
2018-09-03T16:09:24.222Z,34.87
2018-09-03T16:11:52.193Z,32.97
2018-09-03T16:14:20.432Z,35.63
2018-09-03T16:16:48.452Z,34.13
2018-09-03T16:19:16.453Z,36.47
2018-09-03T16:21:44.799Z,37.40
2018-09-03T16:24:13.246Z,36.87
2018-09-03T16:26:41.486Z,36.63
2018-09-03T16:29:09.548Z,36.33
2018-09-03T16:31:37.949Z,36.90
2018-09-03T16:34:07.007Z,36.77
2018-09-03T16:36:35.039Z,35.90
2018-09-03T16:39:03.452Z,36.67
2018-09-03T16:41:32.267Z,37.23
2018-09-03T16:44:00.567Z,37.60
2018-09-03T16:46:28.736Z,33.07
2018-09-03T16:48:56.932Z,35.93
2018-09-03T16:51:25.452Z,36.40
2018-09-03T16:53:54.832Z,37.87
2018-09-03T16:56:26.753Z,37.40
2018-09-03T16:58:55.231Z,39.17
2018-09-03T17:01:23.430Z,41.27
2018-09-03T17:03:51.351Z,37.97
2018-09-03T17:06:20.286Z,38.57
2018-09-03T17:08:48.436Z,37.93
2018-09-03T17:11:16.423Z,41.20
2018-09-03T17:13:44.514Z,39.47
2018-09-03T17:16:12.487Z,39.40
2018-09-03T17:18:40.686Z,38.27
2018-09-03T17:21:08.719Z,37.87
2018-09-03T17:23:36.682Z,37.50
2018-09-03T17:26:04.751Z,39.07
2018-09-03T17:28:33.027Z,35.90
2018-09-03T17:31:01.195Z,38.67
2018-09-03T17:33:29.153Z,38.20
2018-09-03T17:35:57.146Z,36.23
2018-09-03T17:38:25.233Z,39.63
2018-09-03T17:40:53.220Z,40.67
2018-09-03T17:43:21.168Z,35.73
2018-09-03T17:45:49.251Z,37.57
2018-09-03T17:48:17.392Z,36.47
2018-09-03T17:50:45.416Z,35.40
2018-09-03T17:53:13.470Z,38.20
2018-09-03T17:55:41.664Z,36.43
2018-09-03T17:58:09.772Z,36.10
2018-09-03T18:00:37.875Z,36.17
2018-09-03T18:03:05.921Z,35.80
2018-09-03T18:05:34.407Z,35.77
2018-09-03T18:08:02.492Z,34.47
2018-09-03T18:10:30.550Z,35.60
2018-09-03T18:12:58.842Z,36.63
2018-09-03T18:15:26.827Z,34.07
2018-09-03T18:17:54.849Z,34.57
2018-09-03T18:20:22.837Z,33.03
2018-09-03T18:22:50.971Z,29.80
2018-09-03T18:25:19.059Z,30.37
2018-09-03T18:27:47.137Z,33.47
2018-09-03T18:30:15.390Z,29.33
2018-09-03T18:32:43.376Z,30.73
2018-09-03T18:35:11.463Z,30.43
2018-09-03T18:37:39.597Z,29.50
2018-09-03T18:40:07.816Z,32.40
2018-09-03T18:42:36.036Z,30.63
2018-09-03T18:45:04.717Z,30.03
2018-09-03T18:47:33.071Z,32.33
2018-09-03T18:50:01.196Z,30.83
2018-09-03T18:52:29.291Z,29.80
2018-09-03T18:55:03.865Z,30.93
2018-09-03T18:57:32.505Z,34.40
2018-09-03T19:00:01.309Z,29.57
2018-09-03T19:02:29.256Z,31.23
2018-09-03T19:04:57.668Z,33.10
2018-09-03T19:07:25.751Z,32.53
2018-09-03T19:09:53.892Z,31.33
2018-09-03T19:12:22.175Z,29.53
2018-09-03T19:14:50.699Z,29.20
2018-09-03T19:17:19.073Z,31.73
2018-09-03T19:19:47.316Z,30.67
2018-09-03T19:22:15.501Z,31.17
2018-09-03T19:24:43.453Z,30.30
2018-09-03T19:27:11.754Z,33.40
2018-09-03T19:29:51.663Z,31.17
2018-09-03T19:32:21.224Z,31.43
2018-09-03T19:34:49.437Z,32.10
2018-09-03T19:37:17.620Z,33.27
2018-09-03T19:39:45.972Z,29.67
2018-09-03T19:42:14.065Z,31.60
2018-09-03T19:44:42.233Z,31.53
2018-09-03T19:47:10.767Z,28.97
2018-09-03T19:49:38.860Z,30.87
2018-09-03T19:52:07.037Z,32.20
2018-09-03T19:54:35.205Z,31.87
2018-09-03T19:57:03.320Z,33.13
2018-09-03T19:59:31.437Z,34.50
2018-09-03T20:01:59.575Z,33.97
2018-09-03T20:04:27.618Z,31.67
2018-09-03T20:06:55.768Z,31.80
2018-09-03T20:09:23.649Z,29.83
2018-09-03T20:11:51.836Z,31.10
2018-09-03T20:14:19.908Z,28.33
2018-09-03T20:16:47.961Z,31.30
2018-09-03T20:19:16.048Z,26.90
2018-09-03T20:21:44.062Z,30.30
2018-09-03T20:24:12.304Z,33.67
2018-09-03T20:26:40.522Z,30.47
2018-09-03T20:29:08.640Z,31.13
2018-09-03T20:31:36.870Z,28.73
2018-09-03T20:34:05.799Z,30.30
2018-09-03T20:36:33.915Z,32.43
2018-09-03T20:39:02.052Z,31.80
2018-09-03T20:41:30.035Z,31.77
2018-09-03T20:43:58.312Z,29.40
2018-09-03T20:46:26.572Z,33.37
2018-09-03T20:48:54.676Z,32.83
2018-09-03T20:51:22.530Z,33.87
2018-09-03T20:53:50.541Z,29.83
2018-09-03T20:56:18.615Z,33.00
2018-09-03T20:58:46.953Z,29.10
2018-09-03T21:01:15.168Z,31.37
2018-09-03T21:03:43.245Z,32.00
2018-09-03T21:06:11.329Z,31.10
2018-09-03T21:08:39.361Z,32.13
2018-09-03T21:11:07.506Z,35.20
2018-09-03T21:13:35.507Z,31.47
2018-09-03T21:16:03.619Z,32.73
2018-09-03T21:18:31.490Z,34.27
2018-09-03T21:20:59.611Z,35.13
2018-09-03T21:23:27.740Z,31.67
2018-09-03T21:25:55.752Z,30.47
2018-09-03T21:28:23.670Z,33.40
2018-09-03T21:30:51.724Z,31.83
2018-09-03T21:33:19.781Z,31.93
2018-09-03T21:35:47.882Z,32.60
2018-09-03T21:38:16.136Z,36.57
2018-09-03T21:40:44.181Z,31.23
2018-09-03T21:43:12.311Z,33.90
2018-09-03T21:45:40.357Z,32.77
2018-09-03T21:48:08.416Z,33.47
2018-09-03T21:50:36.483Z,32.67
2018-09-03T21:53:04.697Z,35.67
2018-09-03T21:55:32.898Z,30.80
2018-09-03T21:58:00.933Z,32.37
2018-09-03T22:00:28.971Z,36.13
2018-09-03T22:02:56.975Z,34.00
2018-09-03T22:05:24.923Z,35.67
2018-09-03T22:07:52.980Z,36.67
2018-09-03T22:10:21.180Z,33.80
2018-09-03T22:12:49.254Z,33.27
2018-09-03T22:15:17.271Z,32.87
2018-09-03T22:17:45.257Z,32.67
2018-09-03T22:20:13.348Z,31.03
2018-09-03T22:22:41.305Z,33.50
2018-09-03T22:25:09.975Z,36.17
2018-09-03T22:27:38.058Z,35.03
2018-09-03T22:30:06.234Z,36.87
2018-09-03T22:32:34.208Z,36.40
2018-09-03T22:35:02.299Z,36.37
2018-09-03T22:37:30.512Z,39.57
2018-09-03T22:39:58.702Z,37.10
2018-09-03T22:42:27.426Z,34.67
2018-09-03T22:44:56.625Z,38.83
2018-09-03T22:47:24.772Z,41.17
2018-09-03T22:49:52.810Z,36.73
2018-09-03T22:52:20.741Z,41.30
2018-09-03T22:54:48.801Z,39.63
2018-09-03T22:57:16.803Z,41.17
2018-09-03T22:59:44.821Z,38.80
2018-09-03T23:02:12.842Z,40.80
2018-09-03T23:04:40.880Z,39.47
2018-09-03T23:07:09.085Z,40.53
2018-09-03T23:09:37.237Z,44.73
2018-09-03T23:12:05.240Z,44.77
2018-09-03T23:14:33.312Z,45.57
2018-09-03T23:17:01.563Z,40.17
2018-09-03T23:19:29.530Z,45.90
2018-09-03T23:21:57.484Z,42.87
2018-09-03T23:24:26.521Z,46.70
2018-09-03T23:26:54.691Z,43.83
2018-09-03T23:29:22.655Z,43.77
2018-09-03T23:31:50.662Z,44.67
2018-09-03T23:34:18.617Z,45.53
2018-09-03T23:36:46.735Z,45.00
2018-09-03T23:39:14.762Z,45.47
2018-09-03T23:41:42.769Z,51.13
2018-09-03T23:44:10.821Z,47.50
2018-09-03T23:46:38.955Z,47.70
2018-09-03T23:49:06.969Z,44.73
2018-09-03T23:51:35.119Z,46.07
2018-09-03T23:54:03.186Z,49.60
2018-09-03T23:56:31.155Z,49.30
2018-09-03T23:58:59.146Z,50.40
